Time;durP1;ratioP1;P1;durP2;ratioP2;P2;SDS_P1;SDS_P2;PMS_P1;PMS_P2;Temp;Humidity;BMP_temperature;BMP_pressure;BME280_temperature;BME280_humidity;BME280_pressure;Samples;Min_cycle;Max_cycle;Signal;HPM_P1;HPM_P2
2023/10/18 00:01:39;;;;;;;9.27;5.57;;;8.20;1.00;;;;;;5025705;28;20477;-81
2023/10/18 00:04:06;;;;;;;8.73;6.20;;;8.30;1.00;;;;;;5020527;28;20226;-80
2023/10/18 00:06:32;;;;;;;11.30;5.50;;;8.20;1.00;;;;;;5024898;28;20441;-81
2023/10/18 00:08:58;;;;;;;9.57;6.20;;;8.20;1.00;;;;;;5025080;28;20437;-81
2023/10/18 00:11:25;;;;;;;9.63;6.17;;;8.20;29.60;;;;;;5027872;28;20465;-82
2023/10/18 00:13:53;;;;;;;8.50;5.37;;;8.10;97.30;;;;;;5026128;28;20442;-82
2023/10/18 00:16:21;;;;;;;8.73;6.15;;;8.10;99.90;;;;;;5027893;28;20446;-81
2023/10/18 00:18:47;;;;;;;8.27;6.43;;;8.10;99.90;;;;;;5022087;28;20238;-81
2023/10/18 00:21:12;;;;;;;7.57;5.57;;;8.10;99.90;;;;;;5028246;28;20206;-81
2023/10/18 00:23:39;;;;;;;10.37;6.03;;;8.10;99.90;;;;;;5016895;28;20204;-81
2023/10/18 00:26:09;;;;;;;11.73;6.15;;;8.10;99.90;;;;;;5028211;28;20255;-81
2023/10/18 00:28:38;;;;;;;12.00;6.77;;;8.00;99.90;;;;;;5028477;28;20198;-80
2023/10/18 00:31:18;;;;;;;12.00;6.17;;;8.00;99.90;;;;;;5023623;28;20453;-79
2023/10/18 00:33:44;;;;;;;8.32;6.10;;;8.00;99.90;;;;;;5026840;28;20464;-77
2023/10/18 00:36:10;;;;;;;9.20;5.07;;;7.90;99.90;;;;;;5025336;28;20179;-82
2023/10/18 00:38:39;;;;;;;12.00;5.60;;;7.90;99.90;;;;;;5030087;28;20530;-82
2023/10/18 00:41:08;;;;;;;8.40;6.28;;;7.90;99.90;;;;;;5040017;28;20430;-82
2023/10/18 00:43:34;;;;;;;12.20;5.57;;;7.90;99.90;;;;;;5021063;28;20303;-81
2023/10/18 00:45:59;;;;;;;7.73;5.60;;;8.00;99.90;;;;;;5018591;28;20478;-80
2023/10/18 00:48:28;;;;;;;15.57;4.90;;;8.00;99.90;;;;;;5018989;28;20214;-81
2023/10/18 00:50:55;;;;;;;8.63;5.77;;;8.00;11.80;;;;;;5017122;28;20184;-81
2023/10/18 00:53:23;;;;;;;8.63;5.57;;;8.00;1.00;;;;;;5010585;28;20456;-80
2023/10/18 00:56:00;;;;;;;11.55;6.80;;;8.00;1.00;;;;;;5019021;28;20458;-80
2023/10/18 00:58:30;;;;;;;7.22;5.10;;;8.00;1.00;;;;;;5014676;28;22207;-79
2023/10/18 01:00:56;;;;;;;8.43;5.28;;;8.00;1.00;;;;;;5019379;28;20187;-80
2023/10/18 01:03:28;;;;;;;13.27;5.43;;;8.10;99.90;;;;;;5022420;28;20239;-80
2023/10/18 01:06:12;;;;;;;6.90;5.20;;;8.10;99.90;;;;;;5022754;28;20536;-81
2023/10/18 01:08:38;;;;;;;7.65;5.07;;;8.10;99.90;;;;;;5013410;28;20442;-79
2023/10/18 01:11:09;;;;;;;8.57;5.20;;;8.10;99.90;;;;;;5016453;28;20643;-79
2023/10/18 01:13:42;;;;;;;8.03;4.80;;;8.10;99.90;;;;;;5017962;28;20470;-80
2023/10/18 01:16:20;;;;;;;6.57;4.60;;;8.10;99.90;;;;;;5022584;28;20457;-79
2023/10/18 01:18:47;;;;;;;7.80;5.32;;;8.10;99.90;;;;;;5019823;28;20444;-79
2023/10/18 01:21:20;;;;;;;6.57;4.80;;;8.10;99.90;;;;;;5021234;28;20186;-80
2023/10/18 01:23:51;;;;;;;9.93;4.90;;;8.10;99.90;;;;;;5016869;28;20927;-80
2023/10/18 01:26:21;;;;;;;9.60;5.23;;;8.10;99.90;;;;;;5020430;28;20525;-77
2023/10/18 01:28:47;;;;;;;12.40;6.17;;;8.10;99.90;;;;;;5025643;28;20442;-78
2023/10/18 01:31:14;;;;;;;9.40;4.70;;;8.10;99.90;;;;;;5019898;28;20818;-79
2023/10/18 01:33:43;;;;;;;7.63;4.17;;;8.10;99.90;;;;;;5019775;28;20446;-79
2023/10/18 01:36:14;;;;;;;9.70;4.93;;;8.10;99.90;;;;;;5018740;28;20449;-79
2023/10/18 01:38:48;;;;;;;7.87;5.10;;;8.10;99.90;;;;;;5020186;28;20849;-79
2023/10/18 01:41:25;;;;;;;9.33;5.13;;;8.10;99.90;;;;;;5016662;28;20520;-78
2023/10/18 01:43:51;;;;;;;7.00;5.10;;;8.20;94.00;;;;;;5020169;28;20469;-78
2023/10/18 01:46:17;;;;;;;8.10;5.15;;;8.20;99.90;;;;;;5018267;28;20442;-79
2023/10/18 01:48:48;;;;;;;12.80;4.63;;;8.20;99.90;;;;;;5020051;28;20190;-79
2023/10/18 01:51:14;;;;;;;8.50;5.43;;;8.20;99.90;;;;;;5017254;28;20954;-79
2023/10/18 01:53:41;;;;;;;8.50;4.20;;;8.20;15.70;;;;;;5019274;28;20452;-79
2023/10/18 01:56:07;;;;;;;5.72;4.10;;;8.30;13.90;;;;;;5023730;28;20187;-79
2023/10/18 01:58:35;;;;;;;9.57;5.40;;;8.30;1.00;;;;;;5016452;28;20217;-80
2023/10/18 02:01:02;;;;;;;6.00;4.10;;;8.20;1.00;;;;;;5022458;28;20192;-79
2023/10/18 02:03:29;;;;;;;7.23;5.30;;;8.20;1.00;;;;;;5021071;28;20462;-79
2023/10/18 02:05:56;;;;;;;10.57;4.80;;;8.30;1.00;;;;;;5021093;28;20514;-80
2023/10/18 02:08:21;;;;;;;7.45;4.63;;;8.20;19.50;;;;;;5021474;28;20434;-80
2023/10/18 02:10:49;;;;;;;7.97;5.20;;;8.20;60.20;;;;;;5019773;28;20731;-79
2023/10/18 02:13:15;;;;;;;6.88;5.00;;;8.20;4.40;;;;;;5014839;28;20592;-79
2023/10/18 02:15:41;;;;;;;8.20;5.53;;;8.20;22.70;;;;;;5021732;28;20204;-78
2023/10/18 02:18:08;;;;;;;6.70;4.40;;;8.20;43.50;;;;;;5023322;28;20187;-79
2023/10/18 02:20:42;;;;;;;13.03;5.07;;;8.20;99.90;;;;;;5022110;28;20458;-79
2023/10/18 02:23:14;;;;;;;15.00;5.65;;;8.10;99.90;;;;;;5015545;28;20528;-80
2023/10/18 02:28:27;;;;;;;9.23;5.30;;;8.10;99.90;;;;;;5015765;28;20449;-79
2023/10/18 02:30:56;;;;;;;9.13;4.77;;;8.10;99.90;;;;;;5021004;28;20457;-79
2023/10/18 02:33:36;;;;;;;8.53;5.20;;;8.10;99.90;;;;;;5024228;28;20434;-79
2023/10/18 02:36:06;;;;;;;6.93;4.07;;;8.10;99.90;;;;;;5019526;28;21043;-79
2023/10/18 02:38:32;;;;;;;8.90;6.47;;;8.10;99.90;;;;;;5023315;28;20458;-79
2023/10/18 02:41:01;;;;;;;10.80;5.50;;;8.10;99.90;;;;;;5022759;28;20445;-78
2023/10/18 02:43:29;;;;;;;6.47;5.70;;;8.10;99.90;;;;;;5020192;28;20462;-79
2023/10/18 02:45:54;;;;;;;9.30;5.33;;;8.00;99.90;;;;;;5018276;28;20836;-80
2023/10/18 02:48:24;;;;;;;6.30;4.53;;;8.10;99.90;;;;;;5024979;28;20426;-81
2023/10/18 02:50:50;;;;;;;6.63;5.07;;;8.10;99.90;;;;;;5024339;28;20621;-80
2023/10/18 02:53:17;;;;;;;10.70;5.80;;;8.10;99.90;;;;;;5025075;28;21116;-81
2023/10/18 02:55:55;;;;;;;7.33;5.00;;;8.00;99.90;;;;;;5026340;28;20541;-81
2023/10/18 02:58:27;;;;;;;9.50;5.30;;;8.00;99.90;;;;;;5024326;28;20465;-81
2023/10/18 03:00:54;;;;;;;6.43;4.53;;;8.00;99.90;;;;;;5026642;28;20453;-81
2023/10/18 03:03:22;;;;;;;14.30;5.50;;;8.00;99.90;;;;;;5018450;28;20466;-82
2023/10/18 03:05:47;;;;;;;8.07;5.53;;;8.00;99.90;;;;;;5026399;28;20215;-79
2023/10/18 03:08:13;;;;;;;10.07;5.60;;;7.90;99.90;;;;;;5024680;28;20218;-81
2023/10/18 03:10:45;;;;;;;10.37;6.40;;;7.90;99.90;;;;;;5023769;28;20184;-80
2023/10/18 03:13:11;;;;;;;6.35;5.30;;;7.90;99.90;;;;;;5021578;28;20205;-81
2023/10/18 03:15:52;;;;;;;11.67;5.47;;;7.90;99.90;;;;;;5027030;28;20199;-81
2023/10/18 03:18:19;;;;;;;11.53;5.37;;;7.90;99.90;;;;;;5018922;28;20430;-80
2023/10/18 03:20:44;;;;;;;6.77;5.27;;;7.90;1.00;;;;;;5017614;28;20438;-80
2023/10/18 03:23:13;;;;;;;7.60;5.30;;;7.90;99.90;;;;;;5041006;28;20430;-80
2023/10/18 03:25:39;;;;;;;6.57;5.87;;;7.90;99.90;;;;;;5024292;28;20255;-81
2023/10/18 03:28:04;;;;;;;6.77;5.33;;;7.90;1.00;;;;;;5026713;28;20438;-82
2023/10/18 03:30:44;;;;;;;13.93;5.80;;;7.90;1.00;;;;;;5027513;28;20544;-82
2023/10/18 03:33:12;;;;;;;7.60;5.40;;;7.80;1.00;;;;;;5027114;28;20175;-83
2023/10/18 03:35:41;;;;;;;8.70;5.27;;;7.80;1.00;;;;;;5027462;28;20458;-82
2023/10/18 03:38:29;;;;;;;8.20;5.57;;;7.80;1.00;;;;;;5025957;28;20472;-82
2023/10/18 03:40:57;;;;;;;6.82;5.30;;;7.80;1.00;;;;;;5027421;28;20442;-83
2023/10/18 03:43:26;;;;;;;17.42;6.00;;;7.80;1.00;;;;;;5027614;28;20254;-83
2023/10/18 03:48:56;;;;;;;12.88;6.40;;;7.80;1.00;;;;;;5024684;28;20441;-83
2023/10/18 03:51:24;;;;;;;13.13;5.67;;;7.80;1.00;;;;;;5031596;28;20180;-82
2023/10/18 03:53:53;;;;;;;6.90;6.20;;;7.80;1.00;;;;;;5031056;28;20426;-81
2023/10/18 03:56:22;;;;;;;7.90;5.57;;;7.80;1.00;;;;;;5022701;28;20195;-81
2023/10/18 03:58:49;;;;;;;9.88;6.10;;;7.80;1.00;;;;;;5013184;28;20446;-81
2023/10/18 04:01:19;;;;;;;11.20;6.30;;;7.80;1.00;;;;;;5018056;28;20208;-81
2023/10/18 04:03:45;;;;;;;9.83;6.20;;;7.70;1.00;;;;;;5021581;28;20504;-81
2023/10/18 04:06:21;;;;;;;6.80;5.33;;;7.80;1.00;;;;;;5018914;28;20446;-81
2023/10/18 04:08:46;;;;;;;8.97;6.27;;;7.80;1.00;;;;;;5018010;28;20525;-82
2023/10/18 04:11:13;;;;;;;8.80;6.40;;;7.80;1.00;;;;;;5016693;28;20461;-81
2023/10/18 04:13:39;;;;;;;9.47;5.70;;;7.70;1.00;;;;;;5012983;28;20242;-80
2023/10/18 04:16:11;;;;;;;10.02;7.05;;;7.80;1.00;;;;;;5018170;28;20439;-81
2023/10/18 04:18:41;;;;;;;7.37;5.30;;;7.80;1.00;;;;;;5016509;28;20209;-81
2023/10/18 04:21:12;;;;;;;6.65;5.40;;;7.80;1.00;;;;;;5015955;28;20473;-81
2023/10/18 04:23:38;;;;;;;11.73;6.07;;;7.80;1.00;;;;;;5014316;28;20206;-80
2023/10/18 04:26:05;;;;;;;15.63;6.17;;;7.80;1.00;;;;;;5016295;28;20669;-81
2023/10/18 04:28:38;;;;;;;10.73;6.53;;;7.80;1.00;;;;;;5011187;28;20183;-79
2023/10/18 04:31:08;;;;;;;11.37;6.40;;;7.80;1.00;;;;;;5010225;28;20442;-78
2023/10/18 04:33:41;;;;;;;9.43;6.15;;;7.80;1.00;;;;;;5018247;28;20453;-79
2023/10/18 04:36:11;;;;;;;12.77;7.30;;;7.80;1.00;;;;;;5017460;28;20179;-80
2023/10/18 04:38:44;;;;;;;9.20;6.03;;;7.80;1.00;;;;;;5026140;28;20472;-79
2023/10/18 04:41:11;;;;;;;10.90;5.83;;;7.80;1.00;;;;;;5026070;28;20446;-81
2023/10/18 04:43:37;;;;;;;7.30;5.93;;;7.80;1.00;;;;;;5011652;28;20556;-79
2023/10/18 04:46:14;;;;;;;8.03;5.70;;;7.80;1.00;;;;;;5019716;28;20230;-77
2023/10/18 04:51:44;;;;;;;11.87;5.87;;;7.80;1.00;;;;;;5020145;28;20191;-80
2023/10/18 04:54:18;;;;;;;10.40;6.73;;;7.80;1.00;;;;;;5019776;28;20461;-81
2023/10/18 04:56:45;;;;;;;15.53;6.13;;;7.80;1.00;;;;;;5022027;28;20442;-79
2023/10/18 05:02:05;;;;;;;9.73;7.22;;;7.80;1.00;;;;;;5021774;28;20879;-80
2023/10/18 05:04:34;;;;;;;9.63;5.78;;;7.80;1.00;;;;;;5016890;28;20265;-79
2023/10/18 05:07:14;;;;;;;8.63;6.30;;;7.80;1.00;;;;;;5020533;28;20188;-80
2023/10/18 05:09:43;;;;;;;9.30;6.80;;;7.80;1.00;;;;;;5016014;28;20210;-80
2023/10/18 05:12:27;;;;;;;14.23;6.60;;;7.80;1.00;;;;;;5023109;28;20434;-79
2023/10/18 05:15:06;;;;;;;8.70;6.63;;;7.80;1.00;;;;;;5019716;28;20246;-81
2023/10/18 05:19:58;;;;;;;10.10;6.53;;;7.80;1.00;;;;;;5024072;28;20557;-79
2023/10/18 05:22:24;;;;;;;12.17;8.10;;;7.80;1.00;;;;;;5016573;28;20191;-79
2023/10/18 05:25:11;;;;;;;7.73;6.47;;;7.70;1.00;;;;;;5017699;28;20529;-80
2023/10/18 05:27:38;;;;;;;9.35;6.75;;;7.80;1.00;;;;;;5021260;28;20968;-80
2023/10/18 05:30:15;;;;;;;7.70;6.90;;;7.70;17.80;;;;;;5023783;28;20180;-81
2023/10/18 05:32:54;;;;;;;11.10;6.38;;;7.70;1.00;;;;;;5026282;28;20520;-81
2023/10/18 05:35:21;;;;;;;9.50;6.60;;;7.70;9.70;;;;;;5028421;28;20207;-81
2023/10/18 05:37:58;;;;;;;8.57;6.32;;;7.70;1.20;;;;;;5024466;28;20469;-80
2023/10/18 05:43:03;;;;;;;8.85;6.20;;;7.70;1.00;;;;;;5029278;28;20246;-81
2023/10/18 05:45:31;;;;;;;7.47;6.60;;;7.70;50.40;;;;;;5030238;28;20199;-82
2023/10/18 05:48:03;;;;;;;11.55;6.80;;;7.70;17.80;;;;;;5030746;28;20187;-82
2023/10/18 05:50:35;;;;;;;7.70;6.35;;;7.70;3.60;;;;;;5028628;28;20238;-82
2023/10/18 05:53:03;;;;;;;12.90;7.80;;;7.70;12.40;;;;;;5027386;28;20202;-82
2023/10/18 05:55:30;;;;;;;8.75;7.10;;;7.70;1.00;;;;;;5025550;28;20458;-80
2023/10/18 05:57:56;;;;;;;13.23;7.38;;;7.70;1.00;;;;;;5024453;28;20287;-82
2023/10/18 06:00:22;;;;;;;8.93;6.70;;;7.70;1.00;;;;;;5022878;28;20184;-81
2023/10/18 06:02:52;;;;;;;8.97;6.80;;;7.70;1.00;;;;;;5016409;28;20497;-80
2023/10/18 06:05:19;;;;;;;11.73;6.57;;;7.70;1.00;;;;;;5024547;28;20211;-81
2023/10/18 06:07:46;;;;;;;9.53;7.50;;;7.80;1.00;;;;;;5026174;28;20199;-79
2023/10/18 06:10:17;;;;;;;10.00;6.13;;;7.90;99.90;;;;;;5017712;28;20665;-79
2023/10/18 06:12:48;;;;;;;10.33;6.50;;;7.90;99.90;;;;;;5018757;28;20445;-79
2023/10/18 06:15:16;;;;;;;10.20;7.90;;;7.90;99.90;;;;;;5025192;28;20461;-81
2023/10/18 06:17:50;;;;;;;13.57;6.88;;;7.90;99.90;;;;;;5026770;28;20210;-80
2023/10/18 06:20:28;;;;;;;9.25;7.10;;;8.00;99.90;;;;;;5022032;28;20245;-81
2023/10/18 06:23:09;;;;;;;15.20;7.20;;;8.10;99.90;;;;;;5025972;28;20442;-79
2023/10/18 06:25:38;;;;;;;13.10;7.83;;;8.20;41.70;;;;;;5018319;28;20481;-81
2023/10/18 06:28:07;;;;;;;7.93;6.57;;;8.30;1.00;;;;;;5026912;28;20525;-81
2023/10/18 06:30:39;;;;;;;12.73;7.80;;;8.30;1.00;;;;;;5023696;28;20906;-81
2023/10/18 06:33:15;;;;;;;14.00;6.20;;;8.40;1.00;;;;;;5024899;28;20439;-80
2023/10/18 06:35:54;;;;;;;8.47;7.63;;;8.50;1.00;;;;;;5025590;28;20461;-78
2023/10/18 06:38:22;;;;;;;10.57;8.07;;;8.60;99.90;;;;;;5020508;28;20430;-80
2023/10/18 06:41:02;;;;;;;14.43;7.70;;;8.70;99.90;;;;;;5021665;28;20434;-80
2023/10/18 06:43:29;;;;;;;15.27;8.60;;;8.80;99.90;;;;;;5020101;28;20474;-80
2023/10/18 06:45:55;;;;;;;11.80;7.90;;;9.00;99.90;;;;;;5019629;28;20959;-80
2023/10/18 06:48:26;;;;;;;10.27;6.80;;;9.20;99.90;;;;;;5024878;28;20457;-80
2023/10/18 06:50:53;;;;;;;10.87;7.70;;;9.40;99.90;;;;;;5021117;28;20438;-80
2023/10/18 06:53:19;;;;;;;11.43;7.80;;;9.60;40.80;;;;;;5022451;28;20439;-80
2023/10/18 06:55:55;;;;;;;17.30;8.00;;;9.80;1.00;;;;;;5020190;28;20543;-81
2023/10/18 07:01:00;;;;;;;9.10;6.40;;;10.20;1.00;;;;;;5025031;28;21029;-80
2023/10/18 07:03:27;;;;;;;13.30;7.97;;;10.40;1.00;;;;;;5023229;28;20465;-80
2023/10/18 07:05:56;;;;;;;9.60;7.70;;;10.30;1.00;;;;;;5022764;28;20470;-80
2023/10/18 07:08:29;;;;;;;10.90;7.60;;;10.30;1.00;;;;;;5020480;28;20434;-82
2023/10/18 07:10:56;;;;;;;8.33;7.40;;;10.50;1.00;;;;;;5018518;28;20437;-80
2023/10/18 07:13:34;;;;;;;10.53;8.70;;;10.50;1.00;;;;;;5016060;28;20441;-80
2023/10/18 07:16:12;;;;;;;9.13;7.90;;;10.70;1.00;;;;;;5022124;28;20458;-79
2023/10/18 07:18:38;;;;;;;11.87;8.00;;;10.80;1.00;;;;;;5016563;28;20453;-80
2023/10/18 07:21:08;;;;;;;11.93;8.60;;;11.00;1.00;;;;;;5024616;28;20434;-81
2023/10/18 07:23:37;;;;;;;12.20;7.87;;;11.10;1.00;;;;;;5020519;28;20462;-82
2023/10/18 07:26:15;;;;;;;12.03;8.30;;;11.30;1.00;;;;;;5023642;28;20485;-79
2023/10/18 07:28:43;;;;;;;14.33;8.67;;;11.50;1.00;;;;;;5025778;28;20493;-80
2023/10/18 07:31:10;;;;;;;10.63;8.37;;;12.00;1.00;;;;;;5018365;28;20442;-81
2023/10/18 07:33:42;;;;;;;10.93;8.43;;;12.10;1.00;;;;;;5023637;28;20433;-81
2023/10/18 07:36:12;;;;;;;12.10;7.90;;;12.30;1.00;;;;;;5017295;28;20445;-81
2023/10/18 07:38:39;;;;;;;13.93;8.80;;;12.50;1.00;;;;;;5021571;28;20557;-81
2023/10/18 07:41:07;;;;;;;12.40;7.90;;;12.50;1.00;;;;;;5023589;28;20441;-80
2023/10/18 07:43:35;;;;;;;14.83;8.80;;;12.40;1.00;;;;;;5023371;28;20473;-80
2023/10/18 07:46:06;;;;;;;9.70;7.00;;;12.30;1.00;;;;;;5023218;28;20457;-81
2023/10/18 07:48:31;;;;;;;8.80;7.20;;;12.80;1.00;;;;;;5016034;28;20512;-78
2023/10/18 07:50:58;;;;;;;8.10;7.20;;;13.10;1.00;;;;;;5023149;28;20442;-81
2023/10/18 07:53:24;;;;;;;12.73;8.50;;;13.20;1.00;;;;;;5018757;28;20182;-80
2023/10/18 07:55:57;;;;;;;9.30;8.40;;;13.00;1.00;;;;;;5020524;28;20458;-80
2023/10/18 07:58:25;;;;;;;11.40;7.57;;;12.90;1.00;;;;;;5019446;28;20570;-80
2023/10/18 08:03:30;;;;;;;9.40;7.03;;;12.80;1.00;;;;;;5023420;28;20474;-81
2023/10/18 08:05:56;;;;;;;13.00;8.60;;;12.80;1.00;;;;;;5016430;28;20473;-81
2023/10/18 08:08:26;;;;;;;12.17;8.50;;;12.90;1.00;;;;;;5020818;28;20450;-81
2023/10/18 08:10:54;;;;;;;12.53;8.67;;;12.80;1.00;;;;;;5025385;28;20468;-81
2023/10/18 08:13:27;;;;;;;9.60;8.27;;;13.00;1.00;;;;;;5019965;28;20470;-80
2023/10/18 08:15:53;;;;;;;13.63;8.13;;;13.00;1.00;;;;;;5021456;28;20574;-81
2023/10/18 08:18:21;;;;;;;11.90;9.80;;;13.40;1.00;;;;;;5021646;28;20529;-79
2023/10/18 08:26:06;;;;;;;10.67;7.47;;;15.90;99.90;;;;;;5022519;28;20206;-82
2023/10/18 08:28:39;;;;;;;9.50;8.40;;;16.90;99.90;;;;;;5020690;28;20446;-81
2023/10/18 08:31:15;;;;;;;9.20;7.23;;;17.30;99.90;;;;;;5019619;28;20446;-78
2023/10/18 08:33:42;;;;;;;11.87;7.70;;;18.10;99.90;;;;;;5017655;28;20456;-81
2023/10/18 08:36:13;;;;;;;9.57;7.20;;;18.30;99.90;;;;;;5016973;28;20454;-81
2023/10/18 08:38:41;;;;;;;9.67;7.90;;;17.90;99.90;;;;;;5016841;28;20442;-82
2023/10/18 08:41:17;;;;;;;10.00;8.03;;;17.80;99.90;;;;;;5012580;28;20466;-80
2023/10/18 08:44:15;;;;;;;8.50;7.40;;;17.10;99.90;;;;;;5003680;28;20909;-80
2023/10/18 08:46:43;;;;;;;9.90;8.90;;;17.40;99.90;;;;;;5013037;28;20444;-80
2023/10/18 08:49:12;;;;;;;10.47;8.73;;;16.80;99.90;;;;;;5017195;28;20503;-79
2023/10/18 08:51:44;;;;;;;15.13;8.90;;;17.20;99.90;;;;;;5018633;28;20895;-81
2023/10/18 08:54:17;;;;;;;9.37;7.73;;;17.80;99.90;;;;;;5019656;28;20511;-81
2023/10/18 08:56:47;;;;;;;9.83;7.23;;;19.10;99.90;;;;;;5016131;28;20481;-82
2023/10/18 08:59:18;;;;;;;7.63;6.83;;;20.20;99.90;;;;;;5021704;28;20438;-82
2023/10/18 09:02:09;;;;;;;9.43;7.30;;;20.70;99.90;;;;;;5020104;28;20453;-81
2023/10/18 09:04:31;;;;;;;9.23;7.30;;;20.80;99.90;;;;;;5021545;28;20481;-83
2023/10/18 09:06:59;;;;;;;7.90;7.10;;;22.80;99.90;;;;;;5017619;28;20453;-81
2023/10/18 09:09:26;;;;;;;9.37;6.47;;;21.10;99.90;;;;;;5018067;28;20441;-81
2023/10/18 09:11:52;;;;;;;9.30;7.47;;;20.90;99.90;;;;;;5021674;28;20487;-81
2023/10/18 09:14:18;;;;;;;8.57;6.77;;;19.90;99.90;;;;;;5019436;28;20844;-81
2023/10/18 09:16:47;;;;;;;11.60;7.53;;;19.70;99.90;;;;;;5023057;28;20448;-82
2023/10/18 09:19:13;;;;;;;11.20;8.93;;;19.60;99.90;;;;;;5023442;28;20187;-81
2023/10/18 09:21:50;;;;;;;9.10;8.00;;;19.90;99.90;;;;;;5023966;28;20470;-81
2023/10/18 09:24:23;;;;;;;8.23;7.07;;;20.70;99.90;;;;;;5026176;28;20206;-82
2023/10/18 09:26:51;;;;;;;8.50;7.07;;;21.90;99.90;;;;;;5018017;28;20434;-81
2023/10/18 09:29:17;;;;;;;11.80;6.87;;;22.00;99.90;;;;;;5026921;28;20462;-81
2023/10/18 09:31:53;;;;;;;8.37;7.20;;;22.20;99.90;;;;;;5023444;28;20449;-81
2023/10/18 09:34:19;;;;;;;9.40;7.97;;;21.90;99.90;;;;;;5029670;28;20842;-81
2023/10/18 09:36:55;;;;;;;7.10;6.40;;;21.80;99.90;;;;;;5026910;28;20504;-82
2023/10/18 09:39:21;;;;;;;8.73;7.67;;;21.70;99.90;;;;;;5024919;28;20477;-81
2023/10/18 09:41:47;;;;;;;10.23;7.50;;;22.20;99.90;;;;;;5025112;28;20531;-83
2023/10/18 09:44:13;;;;;;;15.07;7.90;;;21.60;99.90;;;;;;5017863;28;20509;-82
2023/10/18 09:46:39;;;;;;;9.43;7.13;;;21.50;99.90;;;;;;5025273;28;20450;-81
2023/10/18 09:49:09;;;;;;;6.70;6.00;;;22.50;99.90;;;;;;5023482;28;20461;-82
2023/10/18 09:51:42;;;;;;;9.50;5.60;;;23.30;99.90;;;;;;5032847;28;20489;-83
2023/10/18 09:54:12;;;;;;;11.40;6.90;;;23.30;99.90;;;;;;5022026;28;20466;-81
2023/10/18 09:56:40;;;;;;;8.17;6.50;;;22.90;99.90;;;;;;5023342;28;20827;-81
2023/10/18 09:59:12;;;;;;;9.40;7.00;;;22.80;99.90;;;;;;5022134;28;21009;-81
2023/10/18 10:04:14;;;;;;;9.13;6.20;;;22.40;99.90;;;;;;5023901;28;20490;-82
2023/10/18 10:06:47;;;;;;;6.60;5.53;;;23.20;99.90;;;;;;5022676;28;20445;-81
2023/10/18 10:09:17;;;;;;;12.63;6.47;;;23.10;99.90;;;;;;5023619;28;20431;-80
2023/10/18 10:11:45;;;;;;;7.87;7.00;;;23.00;99.90;;;;;;5025028;28;20437;-80
2023/10/18 10:14:16;;;;;;;6.80;6.10;;;22.30;99.90;;;;;;5017942;28;20478;-81
2023/10/18 10:17:01;;;;;;;8.27;6.10;;;21.80;99.90;;;;;;5025024;28;21146;-81
2023/10/18 10:19:31;;;;;;;11.03;6.87;;;22.20;99.90;;;;;;5023350;28;20446;-81
2023/10/18 10:22:04;;;;;;;10.23;6.77;;;22.20;99.90;;;;;;5018797;28;20512;-82
2023/10/18 10:24:42;;;;;;;7.73;6.27;;;22.40;99.90;;;;;;5024077;28;20509;-80
2023/10/18 10:27:21;;;;;;;7.00;6.23;;;21.00;99.90;;;;;;5018251;28;20457;-80
2023/10/18 10:29:56;;;;;;;8.17;6.00;;;20.90;99.90;;;;;;5020986;28;20468;-81
2023/10/18 10:32:23;;;;;;;10.83;6.57;;;20.40;99.90;;;;;;5021501;28;20441;-81
2023/10/18 10:35:07;;;;;;;7.83;5.47;;;20.40;99.90;;;;;;5021909;28;20473;-81
2023/10/18 10:37:35;;;;;;;7.17;6.20;;;19.80;99.90;;;;;;5013103;28;20629;-81
2023/10/18 10:42:48;;;;;;;8.13;6.53;;;19.10;99.90;;;;;;5019850;28;20553;-81
2023/10/18 10:45:35;;;;;;;9.33;6.47;;;18.70;99.90;;;;;;5018207;28;20497;-81
2023/10/18 10:53:43;;;;;;;9.23;6.60;;;18.70;99.90;;;;;;5020380;28;20587;-81
2023/10/18 10:56:26;;;;;;;9.03;7.37;;;18.80;99.90;;;;;;5021357;28;20434;-80
2023/10/18 10:59:21;;;;;;;10.70;6.77;;;18.60;99.90;;;;;;5021196;28;20753;-80
2023/10/18 11:01:43;;;;;;;8.77;6.10;;;18.40;99.90;;;;;;5021755;28;20430;-80
2023/10/18 11:04:23;;;;;;;8.30;6.87;;;18.90;99.90;;;;;;5022647;28;20477;-81
2023/10/18 11:06:51;;;;;;;7.97;6.13;;;19.30;99.90;;;;;;5022895;28;20274;-80
2023/10/18 11:09:17;;;;;;;8.00;6.53;;;19.80;99.90;;;;;;5021774;28;20444;-80
2023/10/18 11:11:45;;;;;;;23.83;6.87;;;19.70;99.90;;;;;;5021176;28;20435;-80
2023/10/18 11:14:22;;;;;;;8.67;6.27;;;19.90;99.90;;;;;;5020816;28;20211;-81
2023/10/18 11:16:53;;;;;;;6.80;6.10;;;20.20;99.90;;;;;;5018623;28;20441;-80
2023/10/18 11:19:24;;;;;;;10.77;7.00;;;19.70;99.90;;;;;;5021553;28;20447;-79
2023/10/18 11:21:51;;;;;;;7.90;6.73;;;19.70;99.90;;;;;;5020671;28;20469;-80
2023/10/18 11:24:21;;;;;;;10.70;6.23;;;19.50;99.90;;;;;;5021381;28;20508;-80
2023/10/18 11:26:50;;;;;;;6.73;5.30;;;19.70;99.90;;;;;;5022191;28;20470;-83
2023/10/18 11:29:24;;;;;;;7.30;6.37;;;20.50;99.90;;;;;;5024235;28;20422;-80
2023/10/18 11:31:58;;;;;;;6.20;5.60;;;21.20;99.90;;;;;;5014715;28;20442;-80
2023/10/18 11:34:26;;;;;;;7.77;6.20;;;21.50;99.90;;;;;;5025427;28;20449;-81
2023/10/18 11:37:01;;;;;;;9.90;6.03;;;20.80;99.90;;;;;;5022088;28;20497;-80
2023/10/18 11:39:32;;;;;;;8.60;6.20;;;20.80;99.90;;;;;;5018771;28;20445;-80
2023/10/18 11:41:59;;;;;;;8.70;6.33;;;20.70;99.90;;;;;;5013537;28;20650;-81
2023/10/18 11:44:33;;;;;;;8.53;6.30;;;21.60;99.90;;;;;;5015970;28;20514;-80
2023/10/18 11:47:18;;;;;;;8.77;5.60;;;21.30;99.90;;;;;;5011755;28;20513;-80
2023/10/18 11:49:46;;;;;;;6.30;5.40;;;21.40;99.90;;;;;;5009691;28;20446;-80
2023/10/18 11:52:16;;;;;;;8.00;5.30;;;22.30;99.90;;;;;;5010384;28;20435;-81
2023/10/18 11:54:43;;;;;;;10.07;5.40;;;22.50;99.90;;;;;;5011123;28;20496;-81
2023/10/18 11:57:24;;;;;;;10.17;5.70;;;22.60;99.90;;;;;;5012738;28;20465;-81
2023/10/18 11:59:56;;;;;;;13.93;6.23;;;22.30;99.90;;;;;;5015587;28;20454;-80
2023/10/18 12:02:28;;;;;;;5.90;4.93;;;22.10;99.90;;;;;;5016099;28;20477;-80
2023/10/18 12:04:55;;;;;;;9.37;4.67;;;22.00;99.90;;;;;;5014094;28;20485;-81
2023/10/18 12:07:22;;;;;;;9.80;4.57;;;21.80;99.90;;;;;;5017781;28;20461;-79
2023/10/18 12:09:51;;;;;;;5.77;4.70;;;21.70;99.90;;;;;;5007984;28;20473;-80
2023/10/18 12:12:21;;;;;;;6.80;5.40;;;21.50;99.90;;;;;;5016501;28;20466;-80
2023/10/18 12:14:50;;;;;;;6.60;5.17;;;21.30;99.90;;;;;;5018038;28;20512;-81
2023/10/18 12:17:16;;;;;;;8.90;5.83;;;20.90;99.90;;;;;;5018762;28;20453;-80
2023/10/18 12:19:42;;;;;;;11.33;5.23;;;20.50;99.90;;;;;;5019120;28;20462;-80
2023/10/18 12:22:15;;;;;;;8.57;5.30;;;20.50;99.90;;;;;;5018177;28;20191;-81
2023/10/18 12:24:41;;;;;;;8.40;4.83;;;20.50;99.90;;;;;;5009696;28;20493;-80
2023/10/18 12:27:22;;;;;;;12.93;5.20;;;20.50;99.90;;;;;;5018141;28;20457;-80
2023/10/18 12:29:53;;;;;;;8.57;4.90;;;20.70;99.90;;;;;;5019515;28;20810;-81
2023/10/18 12:32:19;;;;;;;7.43;5.20;;;20.80;99.90;;;;;;5017309;28;20450;-80
2023/10/18 12:34:56;;;;;;;6.70;4.17;;;20.60;99.90;;;;;;5011054;28;20324;-79
2023/10/18 12:37:21;;;;;;;8.37;4.83;;;19.90;99.90;;;;;;5016083;28;20274;-80
2023/10/18 12:39:47;;;;;;;12.33;4.80;;;19.40;99.90;;;;;;5016869;28;20461;-80
2023/10/18 12:42:17;;;;;;;9.10;4.03;;;19.30;99.90;;;;;;5013289;28;20246;-80
2023/10/18 12:44:46;;;;;;;11.70;4.53;;;19.40;99.90;;;;;;5015684;28;20203;-80
2023/10/18 12:47:12;;;;;;;8.30;4.53;;;19.80;99.90;;;;;;5019413;28;20430;-80
2023/10/18 12:49:44;;;;;;;9.13;4.37;;;19.90;99.90;;;;;;5017064;28;20449;-80
2023/10/18 12:54:55;;;;;;;9.90;4.87;;;19.70;99.90;;;;;;5017917;28;20818;-82
2023/10/18 12:57:21;;;;;;;10.53;4.47;;;19.40;99.90;;;;;;5020343;28;20442;-80
2023/10/18 13:00:00;;;;;;;11.30;4.73;;;19.50;99.90;;;;;;5013566;28;20290;-79
2023/10/18 13:02:47;;;;;;;6.00;3.80;;;19.10;99.90;;;;;;5021351;28;20445;-79
2023/10/18 13:05:14;;;;;;;8.07;4.17;;;19.30;99.90;;;;;;5020948;28;20465;-80
2023/10/18 13:07:43;;;;;;;7.37;4.60;;;19.20;99.90;;;;;;5022100;28;20430;-81
2023/10/18 13:10:12;;;;;;;8.83;4.10;;;19.00;99.90;;;;;;5022451;28;20461;-80
2023/10/18 13:12:38;;;;;;;11.83;3.57;;;19.20;99.90;;;;;;5022891;28;20434;-79
2023/10/18 13:15:07;;;;;;;10.53;4.63;;;19.40;99.90;;;;;;5017748;28;20552;-80
2023/10/18 13:17:33;;;;;;;4.83;3.63;;;19.10;99.90;;;;;;5020284;28;20845;-80
2023/10/18 13:19:58;;;;;;;5.67;3.97;;;18.90;99.90;;;;;;5020477;28;20434;-79
2023/10/18 13:22:25;;;;;;;7.30;4.07;;;18.90;99.90;;;;;;5021500;28;20191;-80
2023/10/18 13:24:50;;;;;;;4.93;3.70;;;18.70;99.90;;;;;;5024397;28;20213;-80
2023/10/18 13:27:28;;;;;;;10.13;4.00;;;18.50;99.90;;;;;;5022023;28;20430;-80
2023/10/18 13:30:00;;;;;;;11.63;4.30;;;18.30;99.90;;;;;;5017472;28;20711;-80
2023/10/18 13:32:26;;;;;;;5.80;3.63;;;18.00;99.90;;;;;;5015837;28;20489;-79
2023/10/18 13:34:51;;;;;;;7.80;4.00;;;17.80;99.90;;;;;;5020442;28;20462;-79
2023/10/18 13:37:17;;;;;;;7.17;3.97;;;17.80;99.90;;;;;;5022071;28;20198;-79
2023/10/18 13:39:47;;;;;;;7.80;3.40;;;17.50;99.90;;;;;;5023845;28;20191;-80
2023/10/18 13:42:13;;;;;;;7.60;3.93;;;17.60;99.90;;;;;;5023088;28;20430;-80
2023/10/18 13:44:41;;;;;;;6.50;3.43;;;17.60;99.90;;;;;;5022092;28;20477;-80
2023/10/18 13:47:07;;;;;;;5.93;3.30;;;17.40;99.90;;;;;;5016900;28;20446;-80
2023/10/18 13:49:33;;;;;;;6.20;3.93;;;17.30;99.90;;;;;;5014217;28;20448;-80